Time;durP1;ratioP1;P1;durP2;ratioP2;P2;SDS_P1;SDS_P2;PMS_P1;PMS_P2;Temp;Humidity;BMP_temperature;BMP_pressure;BME280_temperature;BME280_humidity;BME280_pressure;Samples;Min_cycle;Max_cycle;Signal;HPM_P1;HPM_P2
2021/03/29 00:01:05;;;;;;;21.23;12.40;;;;;;;8.30;66.28;96225.06;5055143;28;20470;-80
2021/03/29 00:03:31;;;;;;;24.20;13.70;;;;;;;8.45;66.57;96224.28;5056893;28;20438;-80
2021/03/29 00:05:59;;;;;;;26.13;14.30;;;;;;;8.46;66.22;96225.13;5057051;28;20984;-79
2021/03/29 00:08:28;;;;;;;22.57;13.40;;;;;;;8.32;66.41;96234.53;5055424;28;20445;-80
2021/03/29 00:10:58;;;;;;;20.10;12.87;;;;;;;8.29;66.71;96226.00;5055495;28;20825;-80
2021/03/29 00:13:26;;;;;;;21.20;14.37;;;;;;;8.22;67.00;96230.72;5055146;28;20446;-79
2021/03/29 00:15:55;;;;;;;17.37;12.87;;;;;;;7.82;68.44;96228.56;5053466;28;20485;-79
2021/03/29 00:18:23;;;;;;;22.63;13.07;;;;;;;8.00;67.99;96222.34;5053599;28;20429;-79
2021/03/29 00:20:54;;;;;;;21.40;13.17;;;;;;;8.16;67.74;96225.00;5036977;28;20842;-80
2021/03/29 00:30:09;;;;;;;19.77;11.80;;;;;;;8.47;66.91;96214.59;5059845;28;20825;-79
2021/03/29 00:32:36;;;;;;;17.63;11.10;;;;;;;8.52;66.38;96220.41;5059974;28;20811;-79
2021/03/29 00:35:04;;;;;;;22.70;11.83;;;;;;;8.55;65.91;96222.00;5059908;28;20842;-79
2021/03/29 00:37:32;;;;;;;14.40;10.23;;;;;;;8.54;66.12;96213.31;5060319;28;20437;-79
2021/03/29 00:39:59;;;;;;;11.60;9.00;;;;;;;8.57;65.96;96214.91;5059867;28;20804;-79
2021/03/29 00:42:26;;;;;;;11.63;8.60;;;;;;;8.54;65.95;96213.31;5059858;28;20490;-79
2021/03/29 00:44:53;;;;;;;15.70;9.40;;;;;;;8.56;65.55;96208.00;5059664;28;20484;-79
2021/03/29 00:47:21;;;;;;;11.73;9.03;;;;;;;8.53;65.29;96209.00;5059816;28;20448;-80
2021/03/29 00:49:47;;;;;;;13.67;8.60;;;;;;;8.48;65.98;96208.41;5059937;28;20445;-79
2021/03/29 00:52:14;;;;;;;10.43;7.47;;;;;;;8.43;66.30;96214.84;5059513;28;20807;-79
2021/03/29 00:54:42;;;;;;;15.57;8.23;;;;;;;8.38;66.25;96212.44;5059349;28;20438;-80
2021/03/29 00:57:09;;;;;;;11.63;8.70;;;;;;;8.29;66.63;96205.94;5060483;28;20434;-79
2021/03/29 00:59:36;;;;;;;10.27;7.70;;;;;;;8.25;66.47;96216.66;5059381;28;20441;-79
2021/03/29 01:02:03;;;;;;;16.00;8.43;;;;;;;8.22;66.33;96220.28;5059773;28;20965;-79
2021/03/29 01:04:31;;;;;;;12.37;7.40;;;;;;;8.20;66.66;96214.28;5059338;28;20818;-79
2021/03/29 01:06:59;;;;;;;11.00;7.33;;;;;;;8.20;66.32;96216.91;5059654;28;20437;-79
2021/03/29 01:09:28;;;;;;;9.37;7.07;;;;;;;8.18;66.64;96215.31;5059527;28;20429;-79
2021/03/29 01:11:57;;;;;;;11.73;8.73;;;;;;;8.22;66.50;96217.66;5059338;28;20914;-79
2021/03/29 01:14:28;;;;;;;14.50;8.87;;;;;;;8.23;66.06;96218.50;5059193;28;20429;-80
2021/03/29 01:17:00;;;;;;;12.10;7.60;;;;;;;8.27;66.37;96225.25;5024423;28;20772;-79
2021/03/29 01:19:41;;;;;;;12.80;8.17;;;;;;;8.16;65.60;96212.78;5059575;28;20796;-79
2021/03/29 01:22:09;;;;;;;20.40;10.43;;;;;;;7.82;67.41;96229.41;5059239;28;20528;-79
2021/03/29 01:24:47;;;;;;;22.90;11.60;;;;;;;7.59;68.58;96232.38;5059588;28;20512;-79
2021/03/29 01:30:39;;;;;;;25.00;11.70;;;;;;;7.61;69.24;96225.28;5058331;28;20824;-79
2021/03/29 01:33:07;;;;;;;18.67;14.00;;;;;;;7.62;69.22;96221.75;5056063;28;20434;-80
2021/03/29 01:35:37;;;;;;;18.50;13.20;;;;;;;7.63;69.43;96226.06;5056248;28;20996;-79
2021/03/29 01:38:04;;;;;;;21.23;14.80;;;;;;;7.68;69.65;96222.28;5056957;28;20437;-79
2021/03/29 01:40:34;;;;;;;19.67;12.77;;;;;;;7.69;69.80;96223.97;5055985;28;20430;-79
2021/03/29 01:43:01;;;;;;;19.53;11.40;;;;;;;7.74;69.09;96219.34;5021567;28;20507;-79
2021/03/29 01:45:27;;;;;;;17.60;11.90;;;;;;;7.75;70.04;96217.56;5056325;28;20441;-79
2021/03/29 01:47:55;;;;;;;16.93;12.27;;;;;;;7.75;69.84;96215.78;5057923;28;20445;-80
2021/03/29 01:50:25;;;;;;;19.40;11.90;;;;;;;7.75;70.02;96212.34;5056194;28;20438;-79
2021/03/29 01:52:53;;;;;;;17.00;10.87;;;;;;;7.79;69.54;96226.94;5055500;28;20445;-79
2021/03/29 01:55:19;;;;;;;20.10;13.10;;;;;;;7.74;69.56;96223.72;5055827;28;20469;-79
2021/03/29 01:57:46;;;;;;;20.50;13.00;;;;;;;7.68;70.34;96231.88;5055594;28;20499;-80
2021/03/29 02:00:16;;;;;;;21.27;14.10;;;;;;;7.54;70.87;96227.38;5055423;28;20441;-79
2021/03/29 02:02:44;;;;;;;21.00;15.43;;;;;;;7.58;71.11;96231.53;5055990;28;20475;-79
2021/03/29 02:05:13;;;;;;;20.10;13.33;;;;;;;7.57;70.89;96229.00;5055683;28;20809;-79
2021/03/29 02:07:40;;;;;;;20.50;12.80;;;;;;;7.61;71.02;96238.34;5020804;28;20441;-80
2021/03/29 02:10:11;;;;;;;23.73;13.00;;;;;;;7.38;71.14;96232.53;5055370;28;20468;-79
2021/03/29 02:12:39;;;;;;;20.27;14.33;;;;;;;7.39;71.42;96225.53;5021015;28;20498;-79
2021/03/29 02:15:09;;;;;;;18.73;13.03;;;;;;;7.37;71.22;96232.59;5055381;28;20828;-79
2021/03/29 02:17:37;;;;;;;15.93;12.00;;;;;;;7.46;71.42;96227.75;5055768;28;20441;-80
2021/03/29 02:20:10;;;;;;;17.93;12.37;;;;;;;7.50;70.79;96227.59;5055549;28;20488;-79
2021/03/29 02:22:38;;;;;;;17.87;12.63;;;;;;;7.55;70.22;96230.84;5055399;28;20441;-79
2021/03/29 02:25:07;;;;;;;19.57;13.23;;;;;;;7.60;70.58;96228.84;5055597;28;20765;-79
2021/03/29 02:27:35;;;;;;;23.47;13.33;;;;;;;7.67;70.67;96231.03;5055633;28;20842;-79
2021/03/29 02:30:07;;;;;;;22.23;12.30;;;;;;;7.73;70.71;96230.72;5055188;28;20984;-79
2021/03/29 02:32:33;;;;;;;24.30;11.83;;;;;;;7.80;69.97;96235.59;5054977;28;20929;-80
2021/03/29 02:35:00;;;;;;;15.90;11.40;;;;;;;7.83;70.00;96236.31;5054747;28;20489;-80
2021/03/29 02:37:26;;;;;;;17.10;11.00;;;;;;;7.86;69.42;96230.94;5020178;28;20450;-79
2021/03/29 02:39:53;;;;;;;16.87;10.70;;;;;;;7.88;69.54;96229.09;5055205;28;20440;-79
2021/03/29 02:42:20;;;;;;;17.77;10.43;;;;;;;7.87;69.18;96227.41;5054594;28;20437;-79
2021/03/29 02:48:10;;;;;;;12.37;8.03;;;;;;;7.90;69.12;96229.84;5054715;28;20525;-80
2021/03/29 02:50:40;;;;;;;13.07;9.17;;;;;;;7.79;69.79;96219.09;5054473;28;20430;-78
2021/03/29 02:53:10;;;;;;;15.93;10.80;;;;;;;7.64;70.35;96225.13;5054727;28;20429;-78
2021/03/29 02:55:38;;;;;;;15.57;11.30;;;;;;;7.63;69.92;96231.28;5054517;28;20485;-78
2021/03/29 02:58:06;;;;;;;15.20;9.50;;;;;;;7.65;70.17;96226.81;5054478;28;20438;-80
2021/03/29 03:00:34;;;;;;;12.60;8.00;;;;;;;7.58;70.28;96217.63;5054418;28;20446;-78
2021/03/29 03:03:02;;;;;;;17.40;9.20;;;;;;;7.64;70.46;96230.34;5054590;28;20430;-78
2021/03/29 03:05:31;;;;;;;13.70;8.50;;;;;;;7.65;69.67;96232.03;5055160;28;20422;-79
2021/03/29 03:07:58;;;;;;;14.40;8.87;;;;;;;7.63;70.29;96233.88;5035929;28;20434;-78
2021/03/29 03:10:27;;;;;;;11.37;8.70;;;;;;;7.58;69.97;96230.69;5054436;28;20766;-79
2021/03/29 03:12:57;;;;;;;10.77;8.60;;;;;;;7.64;70.03;96238.19;5054151;28;20979;-78
2021/03/29 03:15:28;;;;;;;10.93;7.90;;;;;;;7.70;69.32;96224.81;5053853;28;20560;-79
2021/03/29 03:17:58;;;;;;;16.27;9.07;;;;;;;7.72;69.37;96230.78;5054657;28;20445;-79
2021/03/29 03:20:25;;;;;;;22.00;8.63;;;;;;;7.74;68.72;96231.56;5054334;28;20910;-78
2021/03/29 03:22:53;;;;;;;14.80;10.23;;;;;;;7.76;68.42;96240.16;5054689;28;20837;-79
2021/03/29 03:25:22;;;;;;;21.47;10.20;;;;;;;7.80;68.76;96243.44;5053767;28;20453;-78
2021/03/29 03:27:48;;;;;;;19.80;13.03;;;;;;;7.79;68.85;96247.84;5053896;28;20503;-78
2021/03/29 03:30:19;;;;;;;69.00;28.20;;;;;;;7.85;68.96;96244.09;5053920;28;20426;-78
2021/03/29 03:32:45;;;;;;;44.50;19.93;;;;;;;7.87;68.08;96248.31;5053976;28;20438;-79
2021/03/29 03:35:14;;;;;;;24.50;12.70;;;;;;;7.91;67.89;96247.22;5053830;28;20473;-78
2021/03/29 03:37:43;;;;;;;15.80;10.60;;;;;;;7.96;67.72;96246.97;5053780;28;20442;-78
2021/03/29 03:40:11;;;;;;;12.50;9.37;;;;;;;7.95;68.06;96246.13;5053756;28;20792;-78
2021/03/29 03:42:38;;;;;;;21.00;8.83;;;;;;;7.94;68.53;96244.44;5053830;28;20453;-78
2021/03/29 03:45:09;;;;;;;10.30;7.80;;;;;;;7.95;68.45;96230.44;5035748;28;20441;-78
2021/03/29 03:47:37;;;;;;;10.37;7.27;;;;;;;7.97;68.68;96238.19;5053402;28;20496;-78
2021/03/29 03:50:08;;;;;;;14.10;8.60;;;;;;;7.95;69.19;96248.72;5053684;28;20450;-78
2021/03/29 03:52:36;;;;;;;14.40;7.73;;;;;;;7.98;68.81;96239.88;5054403;28;20822;-78
2021/03/29 03:55:03;;;;;;;14.70;8.80;;;;;;;7.99;68.18;96247.63;5053792;28;20535;-78
2021/03/29 03:57:30;;;;;;;14.70;8.20;;;;;;;8.01;68.14;96251.00;5053477;28;20437;-78
2021/03/29 03:59:56;;;;;;;11.37;8.47;;;;;;;8.03;68.33;96249.16;5053507;28;20453;-78
2021/03/29 04:02:23;;;;;;;15.10;9.07;;;;;;;8.03;68.02;96259.63;5053877;28;20468;-78
2021/03/29 04:04:50;;;;;;;10.53;8.07;;;;;;;8.02;67.78;96246.63;5053216;28;20429;-78
2021/03/29 04:07:16;;;;;;;11.43;9.20;;;;;;;8.02;67.18;96239.63;5053143;28;20433;-78
2021/03/29 04:09:45;;;;;;;10.80;7.77;;;;;;;8.02;67.34;96241.41;5053100;28;20445;-78
2021/03/29 04:12:12;;;;;;;11.53;7.00;;;;;;;7.99;67.43;96242.41;5053451;28;20449;-78
2021/03/29 04:14:39;;;;;;;8.63;6.67;;;;;;;7.97;67.88;96235.59;5053261;28;20504;-78
2021/03/29 04:17:06;;;;;;;9.10;7.40;;;;;;;7.98;67.61;96242.50;5053371;28;20476;-78
2021/03/29 04:19:33;;;;;;;9.80;7.30;;;;;;;7.98;67.47;96225.03;5053001;28;20949;-78
2021/03/29 04:22:00;;;;;;;13.10;7.68;;;;;;;7.95;67.81;96229.59;5053333;28;20440;-78
2021/03/29 04:24:26;;;;;;;9.93;7.23;;;;;;;7.86;67.78;96215.25;5052969;28;20206;-79
2021/03/29 04:26:53;;;;;;;17.73;7.47;;;;;;;7.85;67.93;96210.94;5018211;28;20933;-78
2021/03/29 04:29:19;;;;;;;11.37;7.33;;;;;;;7.85;68.05;96216.19;5018354;28;20441;-78
2021/03/29 04:31:46;;;;;;;14.50;7.37;;;;;;;7.85;67.31;96224.03;5052970;28;20964;-78
2021/03/29 04:34:12;;;;;;;17.53;8.63;;;;;;;7.86;67.58;96225.72;5053214;28;20449;-78
2021/03/29 04:36:38;;;;;;;11.23;7.83;;;;;;;7.85;67.33;96223.19;5052996;28;20534;-78
2021/03/29 04:39:06;;;;;;;12.80;7.80;;;;;;;7.82;67.77;96224.19;5053147;28;20437;-78
2021/03/29 04:41:33;;;;;;;10.93;7.77;;;;;;;7.85;67.17;96231.84;5018550;28;20441;-78
2021/03/29 04:43:59;;;;;;;12.70;7.70;;;;;;;7.89;67.46;96229.94;5053103;28;20437;-78
2021/03/29 04:46:25;;;;;;;10.87;7.33;;;;;;;7.96;72.78;96224.28;5053453;28;20926;-80
2021/03/29 04:48:52;;;;;;;13.93;9.67;;;;;;;8.10;77.68;96225.34;5052925;28;20449;-79
2021/03/29 04:51:18;;;;;;;19.77;9.17;;;;;;;8.15;74.99;96228.53;5052950;28;20449;-79
2021/03/29 04:53:44;;;;;;;25.17;10.37;;;;;;;8.22;70.58;96232.50;5053087;28;20520;-78
2021/03/29 04:56:12;;;;;;;23.13;10.77;;;;;;;8.21;67.78;96241.28;5052536;28;20486;-78
2021/03/29 04:58:38;;;;;;;19.60;11.00;;;;;;;8.15;67.84;96249.47;5052373;28;20462;-78
2021/03/29 05:01:04;;;;;;;21.07;9.20;;;;;;;8.14;67.60;96255.63;5052943;28;20236;-78
2021/03/29 05:03:31;;;;;;;19.83;12.00;;;;;;;8.02;67.22;96249.25;5052668;28;20425;-79
2021/03/29 05:05:57;;;;;;;24.87;12.43;;;;;;;8.03;67.03;96251.78;5034423;28;20940;-79
2021/03/29 05:08:23;;;;;;;28.73;12.10;;;;;;;8.02;67.68;96257.94;5054122;28;20445;-79
2021/03/29 05:10:50;;;;;;;27.83;12.03;;;;;;;8.01;66.48;96256.25;5056525;28;20430;-79
2021/03/29 05:13:17;;;;;;;18.50;12.57;;;;;;;8.05;66.20;96267.38;5056498;28;20453;-79
2021/03/29 05:15:43;;;;;;;26.97;13.67;;;;;;;8.11;65.73;96261.00;5057221;28;20485;-79
2021/03/29 05:18:09;;;;;;;27.60;13.30;;;;;;;8.16;65.70;96259.84;5056400;28;20811;-79
2021/03/29 05:20:36;;;;;;;20.43;11.10;;;;;;;8.26;65.46;96265.41;5056673;28;20507;-79
2021/03/29 05:23:02;;;;;;;21.27;11.07;;;;;;;8.38;64.79;96270.00;5056652;28;20890;-78
2021/03/29 05:25:28;;;;;;;33.53;11.03;;;;;;;8.46;64.71;96266.97;5056105;28;20452;-79
2021/03/29 05:27:55;;;;;;;19.30;10.60;;;;;;;8.59;64.25;96266.22;5037825;28;20442;-79
2021/03/29 05:30:23;;;;;;;22.13;11.47;;;;;;;8.72;64.25;96262.94;5021433;28;20442;-78
2021/03/29 05:32:49;;;;;;;25.20;12.97;;;;;;;8.78;63.62;96263.44;5057094;28;20437;-79
2021/03/29 05:35:15;;;;;;;17.63;8.40;;;;;;;8.83;62.71;96261.41;5055732;28;20482;-79
2021/03/29 05:37:42;;;;;;;11.97;8.47;;;;;;;8.95;62.09;96265.09;5037565;28;20445;-78
2021/03/29 05:40:10;;;;;;;17.63;9.07;;;;;;;9.05;61.87;96260.19;5021118;28;20929;-78
2021/03/29 05:42:37;;;;;;;20.57;11.27;;;;;;;9.12;61.26;96272.00;5055747;28;20439;-79
2021/03/29 05:45:07;;;;;;;16.77;9.93;;;;;;;9.24;61.37;96271.28;5037435;28;20439;-79
2021/03/29 05:47:34;;;;;;;18.13;12.53;;;;;;;9.29;61.07;96254.41;5037463;28;20496;-79
2021/03/29 05:50:04;;;;;;;22.90;14.07;;;;;;;9.49;60.70;96268.09;5037155;28;20444;-79
2021/03/29 05:52:30;;;;;;;22.37;14.57;;;;;;;9.58;59.80;96262.34;5055126;28;20934;-79
2021/03/29 05:54:57;;;;;;;16.83;12.90;;;;;;;9.70;59.19;96256.38;5055140;28;20517;-79
2021/03/29 05:57:24;;;;;;;21.17;10.50;;;;;;;9.84;58.89;96273.91;5054948;28;20439;-80
2021/03/29 05:59:51;;;;;;;12.50;7.13;;;;;;;9.95;58.18;96274.09;5055314;28;20443;-79
2021/03/29 06:02:28;;;;;;;8.33;7.47;;;;;;;10.14;57.36;96274.69;5036248;28;20471;-80
2021/03/29 06:04:56;;;;;;;14.53;7.20;;;;;;;10.52;57.48;96274.97;5055306;28;20502;-79
2021/03/29 06:07:23;;;;;;;14.80;7.37;;;;;;;11.17;55.84;96272.53;5054377;28;20449;-78
2021/03/29 06:09:52;;;;;;;11.50;6.70;;;;;;;11.96;53.33;96271.69;5055344;28;20444;-79
2021/03/29 06:12:20;;;;;;;13.63;6.70;;;;;;;12.37;51.10;96260.94;5055591;28;20442;-79
2021/03/29 06:14:47;;;;;;;11.80;6.27;;;;;;;12.71;50.03;96262.00;5055488;28;20442;-78
2021/03/29 06:17:14;;;;;;;14.17;7.53;;;;;;;13.17;47.63;96255.22;5055003;28;20543;-78
2021/03/29 06:19:47;;;;;;;9.33;6.20;;;;;;;13.52;46.94;96265.84;5054536;28;20447;-78
2021/03/29 06:22:20;;;;;;;11.40;7.00;;;;;;;14.05;45.07;96269.69;5055375;28;20540;-78
2021/03/29 06:25:06;;;;;;;7.43;5.90;;;;;;;14.56;43.61;96262.22;5054995;28;20429;-79
2021/03/29 06:27:37;;;;;;;7.23;6.10;;;;;;;14.69;42.07;96258.59;5055285;28;20460;-79
2021/03/29 06:30:25;;;;;;;12.23;6.80;;;;;;;14.93;40.43;96255.81;5055842;28;20774;-79
2021/03/29 06:32:57;;;;;;;8.73;6.30;;;;;;;14.96;39.92;96252.91;5055720;28;20506;-78
2021/03/29 06:35:26;;;;;;;15.17;7.30;;;;;;;14.57;39.58;96257.78;5055888;28;20547;-80
2021/03/29 06:38:06;;;;;;;11.43;6.73;;;;;;;14.79;40.27;96254.28;5055115;28;20511;-78
2021/03/29 06:40:33;;;;;;;9.60;7.33;;;;;;;15.20;39.93;96256.22;5055507;28;20430;-79
2021/03/29 06:42:59;;;;;;;18.53;7.90;;;;;;;15.37;39.13;96252.22;5055196;28;20513;-81
2021/03/29 06:45:27;;;;;;;24.33;8.07;;;;;;;15.72;39.48;96257.25;5055743;28;20441;-80
2021/03/29 06:47:53;;;;;;;10.23;7.37;;;;;;;15.96;37.78;96263.13;5055042;28;20445;-82
2021/03/29 06:50:25;;;;;;;15.40;8.67;;;;;;;16.00;38.24;96255.78;5054522;28;20466;-81
2021/03/29 06:52:53;;;;;;;16.87;9.47;;;;;;;15.72;38.74;96267.84;5054667;28;20462;-81
2021/03/29 06:55:21;;;;;;;13.30;8.70;;;;;;;15.60;39.14;96261.75;5055107;28;20495;-80
2021/03/29 06:58:01;;;;;;;16.10;9.97;;;;;;;15.71;38.61;96263.50;5019803;28;20522;-81
2021/03/29 07:00:30;;;;;;;15.83;9.57;;;;;;;15.86;38.48;96264.88;5053388;28;20458;-83
2021/03/29 07:03:00;;;;;;;15.17;10.80;;;;;;;16.15;36.80;96267.69;5054399;28;20536;-81
2021/03/29 07:05:27;;;;;;;15.60;10.13;;;;;;;16.28;37.09;96265.69;5054851;28;20475;-83
2021/03/29 07:11:19;;;;;;;19.30;8.77;;;;;;;15.67;36.45;96273.53;5053609;28;20805;-81
2021/03/29 07:13:46;;;;;;;14.83;9.83;;;;;;;15.53;37.25;96275.56;5055069;28;20461;-80
2021/03/29 07:16:13;;;;;;;20.87;10.23;;;;;;;15.75;37.91;96265.78;5054843;28;20489;-82
2021/03/29 07:18:41;;;;;;;11.97;9.13;;;;;;;15.91;38.05;96269.78;5054500;28;20452;-82
2021/03/29 07:21:10;;;;;;;13.83;10.53;;;;;;;15.97;37.18;96270.13;5019705;28;21062;-81
2021/03/29 07:23:38;;;;;;;24.57;10.63;;;;;;;15.88;36.61;96272.66;5054224;28;20446;-80
2021/03/29 07:26:20;;;;;;;14.00;9.17;;;;;;;15.73;36.52;96267.72;5035944;28;20447;-83
2021/03/29 07:28:48;;;;;;;15.80;9.40;;;;;;;15.82;36.37;96271.38;5054396;28;20445;-83
2021/03/29 07:31:38;;;;;;;12.20;8.80;;;;;;;15.90;36.36;96278.69;5053433;28;20850;-83
2021/03/29 07:34:05;;;;;;;17.70;11.30;;;;;;;16.03;36.49;96274.88;5052161;28;20811;-83
2021/03/29 07:36:55;;;;;;;17.23;10.80;;;;;;;15.66;36.41;96276.28;5033026;28;20574;-84
2021/03/29 07:39:36;;;;;;;16.97;9.70;;;;;;;15.77;37.88;96276.22;5012281;28;20451;-84
2021/03/29 07:42:38;;;;;;;12.13;9.60;;;;;;;16.13;37.77;96274.94;5014579;28;20478;-84
2021/03/29 07:45:10;;;;;;;12.70;5.73;;;;;;;16.37;35.55;96261.41;5017308;28;20442;-82
2021/03/29 07:47:45;;;;;;;9.10;5.20;;;;;;;16.58;34.86;96258.72;5018609;28;20480;-82
2021/03/29 07:50:20;;;;;;;23.10;8.03;;;;;;;16.95;35.35;96264.31;5016448;28;20932;-83
2021/03/29 07:52:50;;;;;;;10.80;6.77;;;;;;;17.14;32.95;96261.72;5018450;28;20438;-82
2021/03/29 07:55:23;;;;;;;12.17;5.70;;;;;;;16.93;33.22;96267.09;5017484;28;20460;-80
2021/03/29 07:58:05;;;;;;;7.60;5.90;;;;;;;16.33;33.98;96257.34;5015641;28;20442;-79
2021/03/29 08:01:06;;;;;;;11.70;6.13;;;;;;;15.76;35.39;96266.59;4996060;28;20512;-81
2021/03/29 08:03:56;;;;;;;10.80;5.40;;;;;;;15.67;36.85;96272.69;4974729;28;20460;-83
2021/03/29 08:06:52;;;;;;;9.77;7.03;;;;;;;15.68;35.77;96264.59;4976284;28;20462;-83
2021/03/29 08:09:22;;;;;;;6.23;5.17;;;;;;;15.84;34.76;96266.78;4974136;28;20477;-81
2021/03/29 08:12:03;;;;;;;9.60;6.30;;;;;;;15.82;34.31;96260.78;4976372;28;20446;-82
2021/03/29 08:14:42;;;;;;;8.57;5.97;;;;;;;15.69;34.21;96268.09;4978643;28;20857;-80
2021/03/29 08:17:50;;;;;;;8.80;4.97;;;;;;;15.71;34.49;96271.44;4994358;28;21042;-81
2021/03/29 08:20:21;;;;;;;9.93;4.40;;;;;;;16.01;33.74;96266.22;4998585;28;20476;-82
2021/03/29 08:23:20;;;;;;;4.83;4.37;;;;;;;16.11;32.68;96261.00;4994516;28;20515;-82
2021/03/29 08:26:20;;;;;;;10.10;5.60;;;;;;;16.05;32.97;96251.75;4996568;28;20460;-80
2021/03/29 08:29:10;;;;;;;9.20;4.80;;;;;;;16.14;33.67;96254.59;4993675;28;20453;-81
2021/03/29 08:31:59;;;;;;;11.77;5.07;;;;;;;16.16;33.54;96265.88;4955297;29;20585;-81
2021/03/29 08:34:26;;;;;;;6.80;5.07;;;;;;;16.30;33.36;96257.63;4975858;28;20523;-81
2021/03/29 08:36:55;;;;;;;6.03;4.20;;;;;;;16.42;32.29;96253.91;4994815;28;20474;-82
2021/03/29 08:39:22;;;;;;;8.67;3.90;;;;;;;16.56;31.67;96256.22;4993199;28;20432;-81
2021/03/29 08:41:51;;;;;;;9.57;5.00;;;;;;;16.75;32.80;96257.28;4993962;28;20448;-82
2021/03/29 08:44:18;;;;;;;8.80;4.40;;;;;;;16.96;32.56;96258.03;5020111;28;20441;-81
2021/03/29 08:46:46;;;;;;;6.53;5.20;;;;;;;17.01;32.09;96253.16;5020236;28;20461;-81
2021/03/29 08:49:15;;;;;;;4.33;3.90;;;;;;;16.59;31.40;96249.81;5022266;28;20825;-80
2021/03/29 08:51:41;;;;;;;9.33;5.90;;;;;;;16.21;32.65;96250.47;4991471;28;20463;-79
2021/03/29 08:54:09;;;;;;;7.20;5.30;;;;;;;16.36;33.37;96254.44;5023505;28;20442;-79
2021/03/29 08:56:40;;;;;;;7.57;4.20;;;;;;;16.41;32.65;96247.75;5025242;28;20490;-80
2021/03/29 08:59:06;;;;;;;9.67;5.13;;;;;;;16.64;33.57;96250.25;5020530;28;20445;-80
2021/03/29 09:01:33;;;;;;;5.13;4.57;;;;;;;16.83;32.57;96246.84;5017743;28;20494;-81
2021/03/29 09:04:02;;;;;;;4.63;3.80;;;;;;;16.92;31.93;96238.09;5018363;28;20447;-83
2021/03/29 09:06:31;;;;;;;5.73;3.90;;;;;;;16.81;32.24;96249.66;5017005;28;20450;-81
2021/03/29 09:08:58;;;;;;;4.40;3.40;;;;;;;16.75;32.54;96244.84;5042838;28;20442;-81
2021/03/29 09:11:24;;;;;;;17.70;3.57;;;;;;;16.62;32.29;96249.53;5057845;28;20803;-79
2021/03/29 09:13:54;;;;;;;6.90;3.50;;;;;;;16.60;32.77;96240.88;5025337;28;20482;-81
2021/03/29 09:16:23;;;;;;;5.07;3.40;;;;;;;16.60;32.32;96236.41;5063938;28;20481;-82
2021/03/29 09:18:49;;;;;;;6.67;3.37;;;;;;;16.78;32.84;96230.53;5061757;28;20437;-82
2021/03/29 09:21:24;;;;;;;7.80;4.10;;;;;;;16.97;32.82;96233.19;5061278;28;20444;-82
2021/03/29 09:23:51;;;;;;;6.57;5.17;;;;;;;16.57;31.88;96230.56;5061834;28;20446;-82
2021/03/29 09:26:25;;;;;;;5.47;4.23;;;;;;;16.63;32.53;96228.19;5056462;28;20443;-81
2021/03/29 09:28:55;;;;;;;6.93;3.80;;;;;;;16.52;33.47;96228.31;5057054;28;20457;-81
2021/03/29 09:31:44;;;;;;;6.77;4.30;;;;;;;16.40;32.60;96218.75;5054362;28;20458;-80
2021/03/29 09:34:13;;;;;;;6.30;3.90;;;;;;;15.98;32.70;96218.00;5024194;28;20454;-80
2021/03/29 09:36:40;;;;;;;7.73;4.13;;;;;;;16.04;33.36;96218.31;5023537;28;20482;-81
2021/03/29 09:39:15;;;;;;;6.40;4.60;;;;;;;15.58;33.53;96220.47;5034957;28;20439;-83
2021/03/29 09:41:52;;;;;;;14.50;5.83;;;;;;;15.42;35.07;96216.47;5043803;28;20542;-83
2021/03/29 09:44:25;;;;;;;7.53;5.30;;;;;;;15.47;35.58;96214.28;5024124;28;20963;-81
2021/03/29 09:46:56;;;;;;;7.40;4.23;;;;;;;15.47;34.09;96200.22;5004518;28;20539;-82
2021/03/29 09:49:23;;;;;;;6.60;3.97;;;;;;;15.36;33.73;96202.91;4999127;28;20457;-82
2021/03/29 09:51:51;;;;;;;4.50;3.70;;;;;;;15.32;34.08;96204.09;5009575;28;20462;-84
2021/03/29 09:54:38;;;;;;;6.70;5.73;;;;;;;15.23;35.02;96203.06;5041721;28;20992;-84
2021/03/29 09:57:15;;;;;;;6.73;4.63;;;;;;;15.05;36.63;96197.50;5041935;28;20595;-85
2021/03/29 09:59:44;;;;;;;8.57;4.63;;;;;;;15.20;34.52;96200.69;5042765;28;20444;-82
2021/03/29 10:02:14;;;;;;;7.93;5.13;;;;;;;15.17;34.36;96191.19;5048581;28;20903;-82
2021/03/29 10:05:02;;;;;;;8.13;4.60;;;;;;;15.29;34.64;96194.63;5064043;28;20950;-81
2021/03/29 10:07:31;;;;;;;9.37;4.20;;;;;;;15.00;35.64;96182.97;5021793;28;20534;-83
2021/03/29 10:10:04;;;;;;;15.77;5.10;;;;;;;15.11;35.87;96189.06;5021531;28;20443;-83
2021/03/29 10:12:31;;;;;;;12.57;4.47;;;;;;;14.91;34.88;96183.72;5021099;28;20445;-83
2021/03/29 10:15:26;;;;;;;5.50;3.50;;;;;;;14.86;35.85;96190.22;5021027;28;20493;-82
2021/03/29 10:18:06;;;;;;;6.17;4.20;;;;;;;14.69;35.32;96184.59;4981810;28;20922;-85
2021/03/29 10:20:35;;;;;;;4.13;3.43;;;;;;;14.50;34.92;96175.53;4981982;28;20452;-80
2021/03/29 10:23:27;;;;;;;8.40;4.10;;;;;;;14.42;35.72;96171.78;4983815;28;20523;-81
2021/03/29 10:26:24;;;;;;;9.53;4.33;;;;;;;14.62;36.77;96181.63;4983183;28;20464;-84
2021/03/29 10:29:28;;;;;;;11.47;4.13;;;;;;;14.93;35.14;96176.50;4988822;28;20453;-83
2021/03/29 10:31:54;;;;;;;5.70;3.90;;;;;;;15.10;34.75;96170.69;5019858;28;20885;-84
2021/03/29 10:34:21;;;;;;;9.57;4.43;;;;;;;15.24;35.83;96170.38;5041937;28;20444;-84
2021/03/29 10:36:47;;;;;;;10.00;4.40;;;;;;;15.21;35.45;96173.28;5041030;28;21662;-83
2021/03/29 10:39:14;;;;;;;6.23;4.57;;;;;;;15.16;35.57;96160.44;5041137;28;20449;-84
2021/03/29 10:41:41;;;;;;;5.83;4.50;;;;;;;14.85;35.73;96163.91;4990552;28;21308;-83
2021/03/29 10:44:07;;;;;;;4.67;4.13;;;;;;;14.71;35.26;96165.03;5019620;28;20451;-84
2021/03/29 10:46:35;;;;;;;7.50;4.10;;;;;;;14.70;35.42;96147.50;5022756;28;20447;-85
2021/03/29 10:49:02;;;;;;;8.57;4.87;;;;;;;14.70;36.86;96150.13;5032315;28;20430;-84
2021/03/29 10:51:32;;;;;;;6.50;3.57;;;;;;;14.71;36.82;96159.75;5040743;28;20453;-85
2021/03/29 10:53:59;;;;;;;9.30;5.07;;;;;;;14.79;36.64;96152.06;5040247;28;20427;-84
2021/03/29 10:56:30;;;;;;;7.00;3.60;;;;;;;14.93;35.72;96144.78;5053988;28;20489;-86
2021/03/29 10:58:58;;;;;;;5.10;4.10;;;;;;;14.96;35.67;96137.44;5062461;28;20453;-84
2021/03/29 11:01:24;;;;;;;6.73;3.73;;;;;;;15.05;35.15;96134.06;5062494;28;20957;-82
2021/03/29 11:03:51;;;;;;;12.93;4.20;;;;;;;14.92;34.92;96130.72;5061753;28;20524;-81
2021/03/29 11:06:20;;;;;;;5.10;4.50;;;;;;;15.02;35.29;96125.53;5062194;28;20972;-82
2021/03/29 11:08:46;;;;;;;12.07;4.10;;;;;;;14.81;35.26;96123.69;5061659;28;20465;-79
2021/03/29 11:11:13;;;;;;;12.40;5.57;;;;;;;14.88;36.93;96122.22;5061312;28;20454;-80
2021/03/29 11:13:40;;;;;;;8.90;5.00;;;;;;;15.03;37.29;96124.56;5061988;28;20485;-80
2021/03/29 11:16:10;;;;;;;12.10;4.90;;;;;;;15.18;35.74;96118.84;5061479;28;20978;-81
2021/03/29 11:18:36;;;;;;;6.30;3.43;;;;;;;15.38;36.55;96109.25;5025031;28;20497;-80
2021/03/29 11:21:03;;;;;;;8.37;3.60;;;;;;;15.55;35.06;96099.88;5059557;28;20441;-84
2021/03/29 11:23:32;;;;;;;8.37;3.63;;;;;;;15.68;34.88;96099.69;5061287;28;20444;-82
2021/03/29 11:25:58;;;;;;;8.30;3.93;;;;;;;15.46;36.08;96096.19;5007774;28;20436;-79
2021/03/29 11:28:24;;;;;;;3.50;3.20;;;;;;;15.26;36.11;96110.25;5058574;28;20453;-79
2021/03/29 11:30:51;;;;;;;7.60;3.93;;;;;;;15.25;34.25;96095.38;5058237;28;20446;-79
2021/03/29 11:33:18;;;;;;;4.33;3.10;;;;;;;15.35;35.06;96092.81;5058236;28;20456;-78
2021/03/29 11:35:45;;;;;;;7.60;3.77;;;;;;;15.43;34.63;96080.59;5058468;28;20477;-80
2021/03/29 11:38:11;;;;;;;4.17;3.17;;;;;;;15.29;36.09;96065.03;5053932;28;20434;-80
2021/03/29 11:40:37;;;;;;;4.27;3.73;;;;;;;15.02;35.76;96075.28;5055229;28;20448;-81
2021/03/29 11:43:04;;;;;;;5.40;4.00;;;;;;;14.85;35.59;96074.91;5054793;28;20446;-82
2021/03/29 11:45:30;;;;;;;16.03;4.30;;;;;;;14.82;35.90;96079.63;5035895;28;21010;-80
2021/03/29 11:47:57;;;;;;;5.53;4.30;;;;;;;14.92;37.31;96064.66;5054772;28;20448;-80
2021/03/29 11:50:25;;;;;;;4.17;3.60;;;;;;;14.90;36.43;96055.19;5054638;28;20429;-81
2021/03/29 11:52:51;;;;;;;5.80;3.30;;;;;;;14.72;37.54;96058.38;5054045;28;20497;-81
2021/03/29 11:55:18;;;;;;;8.60;4.37;;;;;;;14.75;36.98;96050.22;5053880;28;20445;-80
2021/03/29 11:57:45;;;;;;;10.17;4.30;;;;;;;14.83;37.94;96054.88;5054043;28;20553;-80
2021/03/29 12:00:19;;;;;;;6.10;4.63;;;;;;;14.86;37.09;96036.09;5054609;28;20503;-79